Micco, Florida
Current Conditions -  °F | °C
As of 8:53 AM on Friday 24 Oct 2014 (Local Time) from KVRB Reporting Station
Scattered Clouds Scattered Clouds  
Wind Chill: 75°   Ceiling: Unl
Heat Index: 75°   Visibility: 10mi
Dew Point: 60°   Wind: 9mph
Humidity: 60%   Direction: 60°ENE
Pressure: 29.94"   Gusts: NA
Location:  27.8606°N, 80.5442°W
Report Text: KVRB 241253Z 06008KT 10SM SCT038 24/16 A2994 RMK AO2 SLP138 T02390156
Loading
Personal Weather Stations






























Interactive Weather Map New forecast layout! Learn more

10-Day Weather Forecast

Advertisements
Track Severe Weather on mobile